Time;durP1;ratioP1;P1;durP2;ratioP2;P2;SDS_P1;SDS_P2;PMS_P1;PMS_P2;Temp;Humidity;BMP_temperature;BMP_pressure;BME280_temperature;BME280_humidity;BME280_pressure;Samples;Min_cycle;Max_cycle;Signal;HPM_P1;HPM_P2
2021/03/13 00:01:13;;;;;;;;;4.00;4.00;;;;;;;;5004336;28;113605;-78
2021/03/13 00:03:40;;;;;;;;;4.25;4.25;;;;;;;;5005997;28;114042;-78
2021/03/13 00:06:06;;;;;;;;;6.50;4.25;;;;;;;;5009054;28;112024;-79
2021/03/13 00:08:35;;;;;;;;;5.25;5.00;;;;;;;;5008663;28;113630;-78
2021/03/13 00:11:01;;;;;;;;;5.00;3.50;;;;;;;;5009280;28;113993;-78
2021/03/13 00:13:27;;;;;;;;;4.00;3.00;;;;;;;;5011212;28;112387;-78
2021/03/13 00:15:53;;;;;;;;;7.50;5.50;;;;;;;;5001519;28;114212;-78
2021/03/13 00:18:19;;;;;;;;;8.00;4.00;;;;;;;;5003124;28;112833;-78
2021/03/13 00:20:46;;;;;;;;;7.25;5.00;;;;;;;;5009814;28;113638;-79
2021/03/13 00:23:12;;;;;;;;;8.50;5.00;;;;;;;;5006871;28;114206;-78
2021/03/13 00:25:38;;;;;;;;;5.00;3.00;;;;;;;;5000771;28;112801;-78
2021/03/13 00:28:05;;;;;;;;;8.00;4.75;;;;;;;;5008156;28;113561;-78
2021/03/13 00:30:32;;;;;;;;;4.00;4.00;;;;;;;;5007521;28;114540;-78
2021/03/13 00:32:59;;;;;;;;;4.50;4.00;;;;;;;;5009337;28;113119;-78
2021/03/13 00:35:25;;;;;;;;;3.00;3.00;;;;;;;;5007050;28;113641;-78
2021/03/13 00:37:52;;;;;;;;;4.25;3.75;;;;;;;;5010277;28;112221;-78
2021/03/13 00:40:20;;;;;;;;;4.00;3.75;;;;;;;;5003010;28;113544;-78
2021/03/13 00:42:46;;;;;;;;;6.50;3.00;;;;;;;;5008886;28;114167;-79
2021/03/13 00:45:14;;;;;;;;;4.75;3.25;;;;;;;;5007435;28;112022;-78
2021/03/13 00:47:41;;;;;;;;;4.75;3.00;;;;;;;;5008674;28;114047;-78
2021/03/13 00:50:07;;;;;;;;;6.00;5.00;;;;;;;;5007677;28;114057;-78
2021/03/13 00:52:34;;;;;;;;;6.25;4.00;;;;;;;;5008434;28;111856;-78
2021/03/13 00:55:00;;;;;;;;;3.75;3.75;;;;;;;;5008938;28;113563;-78
2021/03/13 00:57:26;;;;;;;;;4.50;3.50;;;;;;;;5010426;28;114093;-78
2021/03/13 00:59:52;;;;;;;;;4.25;3.00;;;;;;;;4997750;28;113368;-78
2021/03/13 01:02:18;;;;;;;;;5.25;4.75;;;;;;;;5009180;28;113926;-77
2021/03/13 01:04:44;;;;;;;;;3.75;3.50;;;;;;;;5006552;28;112019;-78
2021/03/13 01:07:10;;;;;;;;;11.00;5.75;;;;;;;;5008340;28;113466;-77
2021/03/13 01:09:37;;;;;;;;;7.00;3.00;;;;;;;;5007484;28;113950;-77
2021/03/13 01:12:04;;;;;;;;;6.50;4.25;;;;;;;;5007764;28;112174;-78
2021/03/13 01:14:30;;;;;;;;;3.75;3.75;;;;;;;;5008202;28;113497;-77
2021/03/13 01:16:56;;;;;;;;;4.25;4.00;;;;;;;;5005510;28;113986;-78
2021/03/13 01:19:22;;;;;;;;;7.50;5.50;;;;;;;;5005355;28;113634;-77
2021/03/13 01:21:48;;;;;;;;;2.75;2.75;;;;;;;;5001746;28;114054;-77
2021/03/13 01:24:14;;;;;;;;;5.00;3.00;;;;;;;;5008780;28;112023;-77
2021/03/13 01:26:40;;;;;;;;;9.25;4.25;;;;;;;;5006904;28;113907;-77
2021/03/13 01:29:07;;;;;;;;;3.50;3.50;;;;;;;;5007196;28;112545;-77
2021/03/13 01:31:33;;;;;;;;;5.00;4.00;;;;;;;;5008154;28;111939;-77
2021/03/13 01:33:59;;;;;;;;;7.00;4.25;;;;;;;;5006677;28;113725;-77
2021/03/13 01:36:25;;;;;;;;;3.25;2.00;;;;;;;;5007774;28;114201;-77
2021/03/13 01:38:51;;;;;;;;;4.00;2.00;;;;;;;;5009864;28;112913;-77
2021/03/13 01:41:17;;;;;;;;;5.00;3.25;;;;;;;;5001372;28;114093;-77
2021/03/13 01:43:43;;;;;;;;;4.00;2.25;;;;;;;;5009138;28;112351;-77
2021/03/13 01:46:10;;;;;;;;;6.00;2.50;;;;;;;;5005975;28;113572;-77
2021/03/13 01:48:37;;;;;;;;;4.75;4.00;;;;;;;;5007300;28;114103;-77
2021/03/13 01:51:04;;;;;;;;;3.50;3.00;;;;;;;;5006967;28;112265;-77
2021/03/13 01:53:30;;;;;;;;;4.25;3.00;;;;;;;;5006584;28;113567;-77
2021/03/13 01:55:56;;;;;;;;;6.25;3.00;;;;;;;;5008350;28;114184;-77
2021/03/13 01:58:22;;;;;;;;;4.75;3.00;;;;;;;;5005347;28;112220;-77
2021/03/13 02:00:48;;;;;;;;;7.50;4.00;;;;;;;;5012397;28;113599;-77
2021/03/13 02:03:15;;;;;;;;;9.00;4.00;;;;;;;;5005711;28;112056;-77
2021/03/13 02:05:42;;;;;;;;;3.50;2.00;;;;;;;;5008453;28;113750;-77
2021/03/13 02:08:12;;;;;;;;;5.50;4.00;;;;;;;;5005896;28;114443;-78
2021/03/13 02:10:41;;;;;;;;;2.00;2.00;;;;;;;;5007813;28;112109;-78
2021/03/13 02:13:12;;;;;;;;;6.75;3.75;;;;;;;;5006359;28;113726;-77
2021/03/13 02:15:46;;;;;;;;;6.25;4.75;;;;;;;;5007191;28;114503;-77
2021/03/13 02:18:19;;;;;;;;;6.00;2.00;;;;;;;;5006152;28;111985;-77
2021/03/13 02:21:06;;;;;;;;;7.00;4.00;;;;;;;;5008334;28;113516;-76
2021/03/13 02:23:38;;;;;;;;;9.00;4.00;;;;;;;;5008181;28;114056;-77
2021/03/13 02:26:15;;;;;;;;;3.50;3.00;;;;;;;;5005814;28;113573;-76
2021/03/13 02:28:46;;;;;;;;;3.00;3.00;;;;;;;;5007261;28;114363;-76
2021/03/13 02:31:15;;;;;;;;;8.25;3.75;;;;;;;;5005414;28;112511;-76
2021/03/13 02:33:42;;;;;;;;;4.75;4.00;;;;;;;;5007969;28;113556;-76
2021/03/13 02:36:10;;;;;;;;;4.25;4.25;;;;;;;;5005176;28;114533;-76
2021/03/13 02:38:39;;;;;;;;;3.00;3.00;;;;;;;;4995284;28;113064;-77
2021/03/13 02:41:10;;;;;;;;;5.50;3.75;;;;;;;;5006504;28;113559;-77
2021/03/13 02:43:38;;;;;;;;;7.50;4.00;;;;;;;;5006286;28;114354;-76
2021/03/13 02:46:05;;;;;;;;;4.00;3.50;;;;;;;;5009896;28;111923;-77
2021/03/13 02:48:32;;;;;;;;;7.50;3.00;;;;;;;;5000539;28;114124;-77
2021/03/13 02:51:00;;;;;;;;;4.25;4.25;;;;;;;;5006030;28;112572;-76
2021/03/13 02:53:26;;;;;;;;;5.50;2.75;;;;;;;;5007860;28;113684;-81
2021/03/13 02:55:53;;;;;;;;;8.25;3.00;;;;;;;;5004675;28;114069;-78
2021/03/13 02:58:20;;;;;;;;;2.25;2.25;;;;;;;;5008256;28;112706;-78
2021/03/13 03:00:46;;;;;;;;;3.00;3.00;;;;;;;;5001269;28;113834;-78
2021/03/13 03:03:15;;;;;;;;;3.75;3.75;;;;;;;;5006644;28;114050;-78
2021/03/13 03:05:42;;;;;;;;;7.25;3.75;;;;;;;;5005571;28;112148;-78
2021/03/13 03:08:08;;;;;;;;;5.50;3.00;;;;;;;;5009554;28;113562;-78
2021/03/13 03:10:36;;;;;;;;;3.00;3.00;;;;;;;;5005984;28;112767;-77
2021/03/13 03:13:03;;;;;;;;;7.25;3.25;;;;;;;;5005805;28;113910;-77
2021/03/13 03:15:30;;;;;;;;;4.25;3.00;;;;;;;;5005595;28;114011;-77
2021/03/13 03:17:57;;;;;;;;;6.50;3.75;;;;;;;;5005484;28;111898;-77
2021/03/13 03:20:23;;;;;;;;;6.75;3.00;;;;;;;;5007219;28;113705;-78
2021/03/13 03:22:50;;;;;;;;;5.00;2.75;;;;;;;;5004254;28;114069;-78
2021/03/13 03:25:16;;;;;;;;;4.75;2.25;;;;;;;;5000460;28;111868;-78
2021/03/13 03:27:50;;;;;;;;;8.50;5.00;;;;;;;;5007506;28;113331;-76
2021/03/13 03:30:18;;;;;;;;;6.00;3.75;;;;;;;;5003277;28;114489;-79
2021/03/13 03:32:44;;;;;;;;;3.75;2.75;;;;;;;;5003991;28;113625;-78
2021/03/13 03:35:10;;;;;;;;;7.50;4.00;;;;;;;;5000257;28;114770;-78
2021/03/13 03:37:36;;;;;;;;;3.00;3.00;;;;;;;;5005004;28;111944;-77
2021/03/13 03:40:04;;;;;;;;;3.75;3.75;;;;;;;;5000553;28;113375;-78
2021/03/13 03:42:30;;;;;;;;;4.25;4.00;;;;;;;;4993015;28;114167;-76
2021/03/13 03:44:57;;;;;;;;;7.25;3.50;;;;;;;;5004184;28;112291;-77
2021/03/13 03:47:23;;;;;;;;;5.00;4.00;;;;;;;;5010910;28;113531;-77
2021/03/13 03:49:49;;;;;;;;;3.25;3.25;;;;;;;;5010510;28;114257;-77
2021/03/13 03:52:17;;;;;;;;;6.00;4.00;;;;;;;;5003927;28;113842;-76
2021/03/13 03:54:43;;;;;;;;;8.25;4.50;;;;;;;;5010030;28;114801;-76
2021/03/13 03:57:10;;;;;;;;;6.00;4.00;;;;;;;;5007672;28;113156;-76
2021/03/13 03:59:37;;;;;;;;;9.25;5.00;;;;;;;;5009837;28;113701;-76
2021/03/13 04:02:04;;;;;;;;;7.00;7.00;;;;;;;;5007915;28;114186;-78
2021/03/13 04:04:30;;;;;;;;;10.75;6.75;;;;;;;;5000826;28;112627;-77
2021/03/13 04:06:57;;;;;;;;;5.25;4.50;;;;;;;;5009990;28;113809;-75
2021/03/13 04:09:24;;;;;;;;;7.50;6.00;;;;;;;;5006948;28;114756;-78
2021/03/13 04:11:50;;;;;;;;;5.50;5.00;;;;;;;;5014455;28;112187;-77
2021/03/13 04:14:17;;;;;;;;;5.00;5.00;;;;;;;;5006819;28;114331;-78
2021/03/13 04:16:43;;;;;;;;;6.00;4.00;;;;;;;;5010399;28;112389;-78
2021/03/13 04:19:10;;;;;;;;;8.75;5.75;;;;;;;;5007853;28;113871;-78
2021/03/13 04:21:36;;;;;;;;;11.25;7.50;;;;;;;;5004998;28;114776;-77
2021/03/13 04:24:02;;;;;;;;;10.75;8.00;;;;;;;;5006714;28;112113;-77
2021/03/13 04:26:30;;;;;;;;;7.75;7.00;;;;;;;;5005636;28;113552;-77
2021/03/13 04:28:56;;;;;;;;;13.25;8.00;;;;;;;;5004880;28;114029;-76
2021/03/13 04:31:26;;;;;;;;;12.75;8.00;;;;;;;;5007360;28;111923;-76
2021/03/13 04:33:53;;;;;;;;;10.00;10.00;;;;;;;;5012860;28;113561;-79
2021/03/13 04:36:20;;;;;;;;;13.33;10.33;;;;;;;;5006914;28;112405;-79
2021/03/13 04:38:47;;;;;;;;;11.00;8.33;;;;;;;;5003339;28;113457;-79
2021/03/13 04:41:13;;;;;;;;;8.67;8.67;;;;;;;;5009037;28;114141;-78
2021/03/13 04:43:39;;;;;;;;;15.00;9.33;;;;;;;;5007229;28;112442;-78
2021/03/13 04:46:05;;;;;;;;;13.00;12.00;;;;;;;;5008901;28;115843;-78
2021/03/13 04:48:33;;;;;;;;;14.00;10.00;;;;;;;;5008041;28;114465;-77
2021/03/13 04:51:00;;;;;;;;;12.00;9.67;;;;;;;;5007175;27;111894;-78
2021/03/13 04:53:26;;;;;;;;;10.67;9.00;;;;;;;;5005174;28;113839;-78
2021/03/13 04:55:52;;;;;;;;;9.00;9.00;;;;;;;;5007365;28;114882;-79
2021/03/13 04:58:18;;;;;;;;;10.00;10.00;;;;;;;;5001655;28;113500;-79
2021/03/13 05:00:45;;;;;;;;;13.67;11.00;;;;;;;;5000935;28;113682;-79
2021/03/13 05:03:11;;;;;;;;;17.00;13.00;;;;;;;;5004464;28;112289;-78
2021/03/13 05:05:38;;;;;;;;;15.00;11.33;;;;;;;;5007758;28;113631;-78
2021/03/13 05:08:04;;;;;;;;;11.33;9.33;;;;;;;;5006895;28;114430;-80
2021/03/13 05:10:30;;;;;;;;;13.67;12.00;;;;;;;;5007520;28;112430;-79
2021/03/13 05:12:56;;;;;;;;;15.00;12.33;;;;;;;;5008993;28;114089;-79
2021/03/13 05:15:23;;;;;;;;;15.00;14.00;;;;;;;;5001707;28;114284;-78
2021/03/13 05:17:49;;;;;;;;;10.00;9.67;;;;;;;;5014032;28;112271;-78
2021/03/13 05:20:15;;;;;;;;;15.33;12.00;;;;;;;;5008829;28;114269;-79
2021/03/13 05:22:45;;;;;;;;;13.00;10.00;;;;;;;;5006991;28;112200;-78
2021/03/13 05:25:11;;;;;;;;;10.00;10.00;;;;;;;;5006351;28;113561;-79
2021/03/13 05:27:39;;;;;;;;;16.33;14.67;;;;;;;;5007448;28;114127;-78
2021/03/13 05:30:05;;;;;;;;;13.67;12.33;;;;;;;;5006909;28;111991;-79
2021/03/13 05:32:31;;;;;;;;;13.00;10.67;;;;;;;;5007706;28;114122;-79
2021/03/13 05:34:57;;;;;;;;;15.00;14.00;;;;;;;;5007874;28;114025;-79
2021/03/13 05:37:23;;;;;;;;;16.33;13.00;;;;;;;;5006503;28;111817;-79
2021/03/13 05:39:50;;;;;;;;;20.00;14.67;;;;;;;;5012243;28;113771;-78
2021/03/13 05:42:17;;;;;;;;;21.00;16.67;;;;;;;;5002016;28;111983;-80
2021/03/13 05:44:44;;;;;;;;;18.33;14.00;;;;;;;;5008997;28;113510;-79
2021/03/13 05:47:10;;;;;;;;;15.33;13.00;;;;;;;;5005867;28;114481;-77
2021/03/13 05:49:38;;;;;;;;;15.67;14.33;;;;;;;;5008190;28;112167;-78
2021/03/13 05:52:06;;;;;;;;;17.67;13.33;;;;;;;;5006386;28;113668;-78
2021/03/13 05:54:32;;;;;;;;;14.00;12.33;;;;;;;;5006755;28;114218;-79
2021/03/13 05:57:00;;;;;;;;;19.00;10.67;;;;;;;;5007421;28;111941;-78
2021/03/13 05:59:27;;;;;;;;;16.67;14.33;;;;;;;;5009650;28;113662;-79
2021/03/13 06:01:53;;;;;;;;;17.00;13.00;;;;;;;;5007443;27;112646;-79
2021/03/13 06:04:19;;;;;;;;;14.33;12.67;;;;;;;;5005005;28;113299;-78
2021/03/13 06:06:48;;;;;;;;;15.00;13.67;;;;;;;;5004803;28;114650;-77
2021/03/13 06:09:14;;;;;;;;;20.67;18.00;;;;;;;;5005841;28;112479;-78
2021/03/13 06:11:40;;;;;;;;;20.00;15.00;;;;;;;;5005300;28;114041;-77
2021/03/13 06:14:07;;;;;;;;;15.00;15.00;;;;;;;;5002722;28;114071;-78
2021/03/13 06:16:33;;;;;;;;;19.33;14.67;;;;;;;;5004153;28;112899;-78
2021/03/13 06:18:59;;;;;;;;;20.00;17.33;;;;;;;;4996403;28;113485;-78
2021/03/13 06:21:27;;;;;;;;;13.00;11.67;;;;;;;;5011236;28;113985;-79
2021/03/13 06:23:57;;;;;;;;;19.00;17.00;;;;;;;;5005548;28;114777;-79
2021/03/13 06:26:23;;;;;;;;;19.33;17.33;;;;;;;;5007301;28;114320;-79
2021/03/13 06:28:51;;;;;;;;;20.67;15.67;;;;;;;;4993093;28;112963;-78
2021/03/13 06:31:22;;;;;;;;;17.67;14.33;;;;;;;;5001242;28;113690;-77
2021/03/13 06:33:48;;;;;;;;;15.67;14.33;;;;;;;;5000743;28;114410;-79
2021/03/13 06:36:19;;;;;;;;;15.67;12.67;;;;;;;;5007890;28;112033;-79
2021/03/13 06:38:45;;;;;;;;;16.33;13.00;;;;;;;;5001352;28;114109;-79
2021/03/13 06:41:12;;;;;;;;;19.00;16.33;;;;;;;;5005623;28;114181;-79
2021/03/13 06:43:39;;;;;;;;;17.33;14.00;;;;;;;;5011160;28;112307;-78
2021/03/13 06:46:06;;;;;;;;;18.00;14.33;;;;;;;;5005363;28;114110;-79
2021/03/13 06:48:34;;;;;;;;;17.00;13.67;;;;;;;;5006674;28;112020;-79
2021/03/13 06:51:30;;;;;;;;;13.00;9.67;;;;;;;;5003118;28;113585;-79
2021/03/13 06:54:03;;;;;;;;;16.00;12.67;;;;;;;;5002338;28;114707;-79
2021/03/13 06:56:30;;;;;;;;;15.00;13.00;;;;;;;;5007354;28;112443;-79
2021/03/13 06:58:56;;;;;;;;;15.33;15.33;;;;;;;;4995676;28;117888;-80
2021/03/13 07:01:32;;;;;;;;;21.67;17.00;;;;;;;;4999351;28;114121;-79
2021/03/13 07:03:59;;;;;;;;;18.00;13.00;;;;;;;;4995694;28;112321;-78
2021/03/13 07:06:26;;;;;;;;;19.00;14.67;;;;;;;;5005045;28;113127;-77
2021/03/13 07:08:56;;;;;;;;;14.00;14.00;;;;;;;;5002108;28;112086;-76
2021/03/13 07:11:24;;;;;;;;;12.25;9.75;;;;;;;;4998782;28;114059;-79
2021/03/13 07:13:53;;;;;;;;;19.33;16.00;;;;;;;;5008753;28;114015;-78
2021/03/13 07:16:23;;;;;;;;;14.00;13.67;;;;;;;;4994622;28;111954;-79
2021/03/13 07:18:49;;;;;;;;;20.00;15.00;;;;;;;;5002656;28;113431;-78
2021/03/13 07:21:19;;;;;;;;;15.25;14.75;;;;;;;;5001786;28;114180;-77
2021/03/13 07:23:49;;;;;;;;;15.33;15.33;;;;;;;;5003588;28;112329;-78
2021/03/13 07:26:16;;;;;;;;;17.50;15.75;;;;;;;;4998949;28;113553;-78
2021/03/13 07:28:43;;;;;;;;;16.75;14.00;;;;;;;;5004331;28;114289;-79
2021/03/13 07:31:10;;;;;;;;;15.00;13.00;;;;;;;;5003773;28;113716;-77
2021/03/13 07:33:37;;;;;;;;;15.67;14.33;;;;;;;;5007291;28;114530;-77
2021/03/13 07:36:06;;;;;;;;;16.75;13.25;;;;;;;;4999225;28;111976;-78
2021/03/13 07:38:34;;;;;;;;;14.75;13.75;;;;;;;;5004023;28;113442;-76
2021/03/13 07:41:00;;;;;;;;;17.25;13.25;;;;;;;;5002806;28;114187;-78
2021/03/13 07:43:27;;;;;;;;;18.75;15.50;;;;;;;;5003198;28;112466;-78
2021/03/13 07:45:53;;;;;;;;;15.75;14.00;;;;;;;;5009106;28;113896;-78
2021/03/13 07:48:19;;;;;;;;;19.50;13.75;;;;;;;;5004471;28;114125;-78
2021/03/13 07:50:47;;;;;;;;;14.00;10.25;;;;;;;;5006199;28;112005;-75
2021/03/13 07:53:14;;;;;;;;;14.00;11.00;;;;;;;;5008289;28;114760;-77
2021/03/13 07:55:42;;;;;;;;;13.50;10.25;;;;;;;;5007108;28;112230;-78
2021/03/13 07:58:09;;;;;;;;;12.25;10.25;;;;;;;;5007858;28;114267;-78
2021/03/13 08:00:42;;;;;;;;;12.75;11.00;;;;;;;;5007242;28;114308;-79
2021/03/13 08:03:23;;;;;;;;;12.75;11.50;;;;;;;;5007537;28;112275;-81
2021/03/13 08:05:55;;;;;;;;;17.00;12.25;;;;;;;;5002917;28;113738;-77
2021/03/13 08:08:33;;;;;;;;;12.25;10.00;;;;;;;;5001212;28;114918;-79
2021/03/13 08:11:00;;;;;;;;;15.50;14.75;;;;;;;;5011054;28;112068;-79
2021/03/13 08:13:48;;;;;;;;;14.75;12.00;;;;;;;;5006228;28;114510;-78
2021/03/13 08:16:14;;;;;;;;;14.75;14.00;;;;;;;;5000606;28;111945;-79
2021/03/13 08:18:41;;;;;;;;;17.50;11.00;;;;;;;;5009151;28;113614;-83
2021/03/13 08:21:28;;;;;;;;;16.25;15.50;;;;;;;;5005590;28;114118;-80
2021/03/13 08:23:54;;;;;;;;;15.50;13.00;;;;;;;;4998020;28;112008;-78
2021/03/13 08:26:22;;;;;;;;;13.00;11.00;;;;;;;;5008371;28;113477;-78
2021/03/13 08:28:56;;;;;;;;;14.25;11.50;;;;;;;;5005036;28;114234;-79
2021/03/13 08:31:40;;;;;;;;;12.00;11.00;;;;;;;;5002693;28;111966;-78
2021/03/13 08:34:24;;;;;;;;;17.50;12.25;;;;;;;;5009732;28;113820;-79
2021/03/13 08:36:50;;;;;;;;;17.75;12.00;;;;;;;;5002245;28;111861;-81
2021/03/13 08:39:18;;;;;;;;;12.50;11.00;;;;;;;;5008199;28;113402;-84
2021/03/13 08:41:48;;;;;;;;;13.00;12.00;;;;;;;;5004778;28;114611;-80
2021/03/13 08:44:26;;;;;;;;;14.75;13.00;;;;;;;;4991361;28;112503;-81
2021/03/13 08:46:54;;;;;;;;;14.25;12.00;;;;;;;;5000229;28;113934;-86
2021/03/13 08:49:39;;;;;;;;;12.50;11.25;;;;;;;;5009826;28;114256;-85
2021/03/13 08:52:21;;;;;;;;;17.00;14.25;;;;;;;;4997541;28;113905;-75
2021/03/13 08:54:48;;;;;;;;;15.50;11.75;;;;;;;;4998686;28;114392;-76
2021/03/13 08:57:15;;;;;;;;;16.00;11.25;;;;;;;;5003667;28;114002;-77
2021/03/13 08:59:42;;;;;;;;;15.00;13.75;;;;;;;;5004128;28;113564;-80
2021/03/13 09:02:11;;;;;;;;;14.75;12.75;;;;;;;;4998392;28;114136;-81
2021/03/13 09:04:37;;;;;;;;;12.00;9.00;;;;;;;;5001359;28;112055;-79
2021/03/13 09:07:04;;;;;;;;;13.25;11.50;;;;;;;;5006035;28;113737;-81
2021/03/13 09:09:31;;;;;;;;;11.75;7.75;;;;;;;;5004208;28;114382;-80
2021/03/13 09:11:58;;;;;;;;;12.50;12.25;;;;;;;;5002851;28;112012;-82
2021/03/13 09:14:25;;;;;;;;;12.50;10.75;;;;;;;;5008999;28;114177;-78
2021/03/13 09:16:51;;;;;;;;;10.75;9.25;;;;;;;;5005761;28;114334;-77
2021/03/13 09:19:17;;;;;;;;;10.75;9.25;;;;;;;;5011929;28;111951;-79
2021/03/13 09:21:45;;;;;;;;;8.00;8.00;;;;;;;;5005970;28;114447;-77
2021/03/13 09:24:12;;;;;;;;;8.00;8.00;;;;;;;;5008465;28;112065;-77
2021/03/13 09:26:38;;;;;;;;;16.50;10.50;;;;;;;;5007156;28;113911;-76
2021/03/13 09:29:05;;;;;;;;;8.75;7.00;;;;;;;;5006437;28;114635;-77
2021/03/13 09:31:31;;;;;;;;;10.50;8.75;;;;;;;;5004081;28;111970;-77
2021/03/13 09:34:20;;;;;;;;;13.00;8.00;;;;;;;;5005493;28;113590;-77
2021/03/13 09:36:46;;;;;;;;;8.00;8.00;;;;;;;;4998862;28;114159;-79
2021/03/13 09:39:13;;;;;;;;;12.50;8.50;;;;;;;;5007749;28;112357;-79
2021/03/13 09:41:39;;;;;;;;;9.50;7.75;;;;;;;;5008445;28;113808;-81
2021/03/13 09:44:05;;;;;;;;;7.00;7.00;;;;;;;;4995657;28;112244;-74
2021/03/13 09:46:32;;;;;;;;;9.25;7.00;;;;;;;;5005455;28;114349;-72
2021/03/13 09:48:59;;;;;;;;;5.50;5.50;;;;;;;;5003012;28;114744;-75
2021/03/13 09:51:26;;;;;;;;;5.25;5.00;;;;;;;;4999390;28;113787;-76
2021/03/13 09:53:52;;;;;;;;;9.00;5.25;;;;;;;;5005477;28;113603;-75
2021/03/13 09:56:29;;;;;;;;;3.50;3.50;;;;;;;;5008040;28;114022;-74
2021/03/13 09:58:56;;;;;;;;;3.00;3.00;;;;;;;;5003974;28;112332;-73
2021/03/13 10:01:22;;;;;;;;;2.25;1.75;;;;;;;;5008453;28;113793;-74
2021/03/13 10:03:50;;;;;;;;;2.00;2.00;;;;;;;;5006997;28;112090;-74
2021/03/13 10:06:17;;;;;;;;;2.50;1.00;;;;;;;;5000808;28;114172;-76
2021/03/13 10:08:43;;;;;;;;;2.00;2.00;;;;;;;;5006901;28;114012;-76
2021/03/13 10:11:09;;;;;;;;;3.00;3.00;;;;;;;;5005760;28;111987;-73
2021/03/13 10:13:35;;;;;;;;;2.00;2.00;;;;;;;;5006656;28;114548;-74
2021/03/13 10:16:01;;;;;;;;;4.75;2.00;;;;;;;;5005702;28;114071;-79
2021/03/13 10:18:28;;;;;;;;;3.50;3.00;;;;;;;;5003120;28;115486;-73
2021/03/13 10:20:57;;;;;;;;;4.75;4.50;;;;;;;;5003909;28;113773;-73
2021/03/13 10:23:24;;;;;;;;;5.00;5.00;;;;;;;;5009210;28;114134;-74
2021/03/13 10:25:54;;;;;;;;;5.75;5.75;;;;;;;;5003529;28;113483;-75
2021/03/13 10:28:20;;;;;;;;;7.25;5.00;;;;;;;;5005002;28;114964;-73
2021/03/13 10:30:46;;;;;;;;;9.75;7.25;;;;;;;;5003148;28;113553;-73
2021/03/13 10:33:13;;;;;;;;;5.75;5.50;;;;;;;;5005051;28;113947;-73
2021/03/13 10:35:39;;;;;;;;;5.75;5.00;;;;;;;;5000659;28;115401;-74
2021/03/13 10:38:16;;;;;;;;;7.50;5.75;;;;;;;;5003199;28;112005;-74
2021/03/13 10:40:43;;;;;;;;;12.25;10.75;;;;;;;;5006836;28;113580;-72
2021/03/13 10:43:13;;;;;;;;;10.75;9.00;;;;;;;;5002857;28;114891;-73
2021/03/13 10:45:39;;;;;;;;;4.00;3.00;;;;;;;;5011040;28;112053;-74
2021/03/13 10:48:06;;;;;;;;;12.75;8.25;;;;;;;;5003468;28;114145;-75
2021/03/13 10:50:34;;;;;;;;;7.50;6.00;;;;;;;;5001932;28;112236;-73
2021/03/13 10:53:00;;;;;;;;;11.75;11.25;;;;;;;;5003829;28;113740;-73
2021/03/13 10:55:38;;;;;;;;;11.00;6.50;;;;;;;;5002535;28;114111;-72
2021/03/13 10:58:05;;;;;;;;;7.25;6.00;;;;;;;;5004167;28;112033;-73
2021/03/13 11:00:31;;;;;;;;;6.50;5.75;;;;;;;;5004407;28;113109;-78
2021/03/13 11:02:57;;;;;;;;;4.00;4.00;;;;;;;;5002095;28;114230;-78
2021/03/13 11:05:23;;;;;;;;;5.50;4.75;;;;;;;;5005948;28;111963;-75
2021/03/13 11:07:49;;;;;;;;;7.75;4.00;;;;;;;;4998017;28;113667;-76
2021/03/13 11:10:15;;;;;;;;;5.00;3.25;;;;;;;;4998712;28;113963;-76
2021/03/13 11:12:42;;;;;;;;;2.75;1.75;;;;;;;;5005637;28;113521;-76
2021/03/13 11:15:09;;;;;;;;;4.75;3.00;;;;;;;;5002710;28;114624;-75
2021/03/13 11:17:35;;;;;;;;;4.00;3.00;;;;;;;;5004900;28;111894;-74
2021/03/13 11:20:01;;;;;;;;;6.00;4.75;;;;;;;;5003781;28;113657;-79
2021/03/13 11:22:27;;;;;;;;;5.50;3.00;;;;;;;;5004312;28;114513;-78
2021/03/13 11:24:53;;;;;;;;;4.00;3.75;;;;;;;;5006366;28;111969;-78
2021/03/13 11:27:19;;;;;;;;;4.75;2.75;;;;;;;;4995008;28;114362;-78
2021/03/13 11:29:47;;;;;;;;;4.00;3.00;;;;;;;;5001603;28;114820;-73
2021/03/13 11:32:14;;;;;;;;;3.00;2.00;;;;;;;;5004739;28;114258;-80
2021/03/13 11:34:40;;;;;;;;;2.00;2.00;;;;;;;;5003537;28;114229;-83
2021/03/13 11:37:06;;;;;;;;;1.50;1.00;;;;;;;;5002503;28;112014;-78
2021/03/13 11:39:32;;;;;;;;;5.25;3.50;;;;;;;;5004461;28;114111;-83
2021/03/13 11:41:58;;;;;;;;;1.75;1.75;;;;;;;;5004555;28;113722;-80
2021/03/13 11:44:25;;;;;;;;;5.50;4.00;;;;;;;;4999704;28;113051;-81
2021/03/13 11:46:55;;;;;;;;;2.50;2.50;;;;;;;;5003470;28;113798;-77
2021/03/13 11:49:21;;;;;;;;;2.00;2.00;;;;;;;;5005817;28;113009;-78
2021/03/13 11:51:47;;;;;;;;;3.50;2.00;;;;;;;;5006337;28;112076;-74
2021/03/13 11:54:13;;;;;;;;;2.50;2.00;;;;;;;;5004292;28;114708;-75
2021/03/13 11:56:40;;;;;;;;;0.00;0.00;;;;;;;;5006633;28;112526;-76
2021/03/13 11:59:06;;;;;;;;;3.00;2.00;;;;;;;;5003705;27;113652;-75
2021/03/13 12:01:32;;;;;;;;;1.75;1.75;;;;;;;;5006246;28;114372;-76
2021/03/13 12:03:59;;;;;;;;;3.00;2.00;;;;;;;;5007366;28;112076;-80
2021/03/13 12:06:26;;;;;;;;;2.75;1.75;;;;;;;;5007129;28;113342;-76
2021/03/13 12:08:52;;;;;;;;;2.00;1.00;;;;;;;;5008289;28;114868;-77
2021/03/13 12:11:18;;;;;;;;;2.50;2.00;;;;;;;;5008669;28;112056;-75
2021/03/13 12:13:44;;;;;;;;;3.75;2.75;;;;;;;;5008700;28;114351;-76
2021/03/13 12:16:10;;;;;;;;;2.50;1.50;;;;;;;;5005890;28;113428;-73
2021/03/13 12:18:37;;;;;;;;;3.25;1.75;;;;;;;;5007559;28;113851;-74
2021/03/13 12:21:04;;;;;;;;;2.00;2.00;;;;;;;;5005204;28;112800;-74
2021/03/13 12:23:30;;;;;;;;;5.25;2.00;;;;;;;;5006985;28;112547;-75
2021/03/13 12:25:56;;;;;;;;;6.50;4.50;;;;;;;;5007661;28;113465;-72
2021/03/13 12:28:22;;;;;;;;;2.75;2.50;;;;;;;;5004742;28;113640;-74
2021/03/13 12:30:48;;;;;;;;;3.50;2.75;;;;;;;;5007542;28;112688;-76
2021/03/13 12:33:14;;;;;;;;;6.00;4.75;;;;;;;;5008132;28;114260;-68
2021/03/13 12:35:40;;;;;;;;;6.75;4.75;;;;;;;;4999662;28;113407;-68
2021/03/13 12:38:07;;;;;;;;;11.75;6.50;;;;;;;;5005915;28;113629;-68
2021/03/13 12:40:33;;;;;;;;;3.50;2.50;;;;;;;;5006689;28;114027;-70
2021/03/13 12:42:59;;;;;;;;;4.00;2.00;;;;;;;;5008670;28;111964;-69
2021/03/13 12:45:25;;;;;;;;;4.50;3.00;;;;;;;;5001156;28;112783;-70
2021/03/13 12:47:52;;;;;;;;;4.25;3.00;;;;;;;;5005778;28;114146;-69
2021/03/13 12:50:18;;;;;;;;;2.00;2.00;;;;;;;;5002586;28;112097;-69
2021/03/13 12:52:44;;;;;;;;;2.50;2.25;;;;;;;;5007522;28;113596;-69
2021/03/13 12:55:13;;;;;;;;;2.25;2.00;;;;;;;;5007556;28;112941;-68
2021/03/13 12:57:39;;;;;;;;;3.50;3.00;;;;;;;;4997737;28;114064;-69
2021/03/13 13:00:06;;;;;;;;;2.00;2.00;;;;;;;;4999208;28;114182;-67
2021/03/13 13:02:32;;;;;;;;;4.25;2.00;;;;;;;;5002076;28;111927;-67
2021/03/13 13:04:58;;;;;;;;;2.25;2.25;;;;;;;;5001750;28;113135;-68
2021/03/13 13:07:24;;;;;;;;;4.75;1.75;;;;;;;;5001983;28;113986;-67
2021/03/13 13:09:50;;;;;;;;;1.75;1.75;;;;;;;;4991837;28;112051;-76
2021/03/13 13:12:17;;;;;;;;;4.25;4.00;;;;;;;;4998314;28;114401;-68
2021/03/13 13:14:44;;;;;;;;;2.75;2.50;;;;;;;;4996402;28;113059;-73
2021/03/13 13:17:10;;;;;;;;;1.00;1.00;;;;;;;;5006263;28;112414;-76
2021/03/13 13:19:36;;;;;;;;;1.00;1.00;;;;;;;;5000292;28;114639;-78
2021/03/13 13:22:02;;;;;;;;;1.25;1.00;;;;;;;;4998849;28;112497;-74
2021/03/13 13:24:28;;;;;;;;;4.00;1.00;;;;;;;;5000877;28;113617;-73
2021/03/13 13:26:54;;;;;;;;;1.75;1.75;;;;;;;;5004755;28;112838;-74
2021/03/13 13:29:23;;;;;;;;;1.00;1.00;;;;;;;;5005368;28;112715;-78
2021/03/13 13:31:49;;;;;;;;;2.25;1.75;;;;;;;;5006054;28;113486;-78
2021/03/13 13:34:15;;;;;;;;;2.25;1.00;;;;;;;;5008711;28;114468;-76
2021/03/13 13:36:41;;;;;;;;;1.00;1.00;;;;;;;;5006400;28;111975;-77
2021/03/13 13:39:07;;;;;;;;;2.75;2.00;;;;;;;;5011402;28;113525;-75
2021/03/13 13:41:33;;;;;;;;;1.00;1.00;;;;;;;;5007400;28;111791;-74
2021/03/13 13:43:59;;;;;;;;;3.50;0.75;;;;;;;;5006551;28;113682;-75
2021/03/13 13:46:26;;;;;;;;;2.50;2.25;;;;;;;;5007555;28;114085;-76
2021/03/13 13:48:52;;;;;;;;;0.00;0.00;;;;;;;;5006175;28;111876;-78
2021/03/13 13:51:18;;;;;;;;;1.00;0.00;;;;;;;;5009037;28;113649;-76
2021/03/13 13:53:44;;;;;;;;;0.25;0.25;;;;;;;;5005398;28;114265;-78
2021/03/13 13:56:10;;;;;;;;;1.25;0.00;;;;;;;;5001394;28;113042;-76
2021/03/13 13:58:36;;;;;;;;;0.00;0.00;;;;;;;;5006296;28;112963;-77
2021/03/13 14:01:02;;;;;;;;;0.00;0.00;;;;;;;;5008267;28;114251;-79
2021/03/13 14:03:29;;;;;;;;;1.00;0.75;;;;;;;;5005640;28;113776;-77
2021/03/13 14:05:55;;;;;;;;;1.00;1.00;;;;;;;;5003003;28;114074;-75
2021/03/13 14:08:22;;;;;;;;;1.00;0.00;;;;;;;;5007333;28;111969;-75
2021/03/13 14:10:48;;;;;;;;;2.50;1.00;;;;;;;;5003690;28;113560;-78
2021/03/13 14:13:14;;;;;;;;;2.00;0.75;;;;;;;;5003519;28;114548;-76
2021/03/13 14:15:40;;;;;;;;;3.25;0.00;;;;;;;;5006331;28;113401;-75
2021/03/13 14:18:06;;;;;;;;;0.00;0.00;;;;;;;;5006204;28;113611;-72
2021/03/13 14:20:33;;;;;;;;;1.25;0.00;;;;;;;;5010173;28;114542;-71
2021/03/13 14:23:02;;;;;;;;;0.25;0.00;;;;;;;;5006373;27;113580;-72